This is the latest recevied weather packets stored in our database for station/object WX6YYZ. If no packets are shown the sender has not sent any weather packets the latest 10 day(s).
| Time | Temp. | Humidity | Pressure | Rain* | Wind** | Luminosity | Snow |
|---|---|---|---|---|---|---|---|
| 1777216944 | 11.67° C | 87% | 1013.5 hPa | 0 mm | - | - | - |
| 1777216643 | 11.67° C | 88% | 1013.5 hPa | 0 mm | - | - | - |
| 1777215739 | 11.11° C | 91% | 1013.5 hPa | 0 mm | - | - | - |
| 1777213934 | 10.56° C | 92% | 1013.5 hPa | 0 mm | - | - | - |
| 1777208424 | 10.56° C | 94% | 1012.2 hPa | 0 mm | - | - | - |
| 1777207791 | 10.56° C | 94% | 1011.9 hPa | 0 mm | - | - | - |
| 1777205083 | 10.56° C | 93% | 1011.9 hPa | 1.52 mm | - | - | - |
| 1777203246 | 10.56° C | 93% | 1011.9 hPa | 2.79 mm | - | - | - |
| 1777202343 | 10.56° C | 93% | 1011.5 hPa | 3.3 mm | - | - | - |
| 1777201710 | 10.56° C | 93% | 1011.5 hPa | 3.05 mm | - | - | - |
| 1777201409 | 10.56° C | 92% | 1011.5 hPa | 2.54 mm | - | - | - |
| 1777196231 | 11.11° C | 91% | 1011.5 hPa | 1.02 mm | - | - | - |
| 1777194695 | 11.11° C | 89% | 1011.5 hPa | 1.78 mm | - | - | - |
| 1777194092 | 11.11° C | 89% | 1011.9 hPa | 1.78 mm | - | - | - |
| 1777191685 | 12.22° C | 82% | 1012.2 hPa | 0.25 mm | - | - | - |
| 1777190752 | 12.22° C | 79% | 1012.5 hPa | 0 mm | - | - | - |
| 1777190451 | 12.22° C | 79% | 1012.5 hPa | 0 mm | - | - | - |
| 1777188045 | 12.22° C | 79% | 1012.5 hPa | 0 mm | - | - | - |
| 1777187411 | 12.22° C | 79% | 1012.5 hPa | 0 mm | - | - | - |
| 1777185513 | 12.22° C | 81% | 1012.5 hPa | 0 mm | - | - | - |
| 1777183676 | 12.22° C | 82% | 1012.5 hPa | 0 mm | - | - | - |
| 1777181267 | 12.22° C | 84% | 1012.9 hPa | 0 mm | - | - | - |
| 1777180665 | 12.22° C | 84% | 1012.9 hPa | 0 mm | - | - | - |
| 1777177260 | 12.78° C | 77% | 1012.9 hPa | 0 mm | - | - | - |
| 1777175455 | 12.78° C | 76% | 1012.9 hPa | 0 mm | - | - | - |
* Rain latest hour (hover to see other rain measurements)
** Current wind speed in m/s (hover to see current wind gust speed)